Portada
METAR-TAF:

METAR-TAF

Aeropuertos :

Zahedan, Irán

latitud: 29-28N, longitud: 060-53E, altitud: 1370 m

Observación

El informe se hizo hace 27 minutos, a las 05:00 UTC
Viento 6 kt del sur
Temperatura 21°C
Humedad 28%
Presión 1019 hPa
Visibilidad 10 km o más
sin nubes por debajo de 1500 m y sin presencia de cumulonimbus.

METAR: OIZH 080500Z 19006KT CAVOK 21/02 Q1019 A3010 NOSIG

Hora: 09:57 (05:27 UTC)

Pronóstico

El informe se hizo hace 6 horas y 27 minutos, a las 23:00 UTC
Pronóstico válido del 08 a las 00 UTC al 09 a las 06 UTC
Viento 8 kt del norte
Visibilidad 10 km o más
sin nubes por debajo de 1500 m y sin presencia de cumulonimbus.
Temporalmente
del 08 a las 09 UTC al 08 a las 16 UTC
Viento 12 kt del norte con ráfagas de 24 kt
Visibilidad: 5000 m
Escasas nubes a una altura de 3500 ft, Cumulus congestus.
Nubes dispersas a una altura de 10000 ft
arena

TAF: OIZH 072300Z 0800/0906 35008KT CAVOK TEMPO 0809/0816 01012G24KT 5000 SA FEW035TCU SCT100

Observaciones y pronósticos meteorológicos de más de 4000 aeropuertos (mensajes METAR y TAF).

Los puntos amarillos y rojos representan las estaciones disponibles.

Ponga el ratón en el punto deseado para ver el nombre de la estación.

Haga clic para ver las observaciones y los pronósticos meteorológicos.

Para cambiar el mapa : haga clic en los botones verdes con una cruz de color negro para hacer un zoom, en el botón verde con un guión para alejar o en las flechas verdes para mapas adyacentes.


METAR-TAF: